Time;durP1;ratioP1;P1;durP2;ratioP2;P2;SDS_P1;SDS_P2;PMS_P1;PMS_P2;Temp;Humidity;BMP_temperature;BMP_pressure;BME280_temperature;BME280_humidity;BME280_pressure;Samples;Min_cycle;Max_cycle;Signal;HPM_P1;HPM_P2
2023/09/27 00:02:19;;;;;;;3.88;2.15;;;;;;;16.14;86.60;102070.19;5053811;27;96736;-29
2023/09/27 00:04:45;;;;;;;5.03;2.38;;;;;;;16.14;87.17;102072.94;5053385;27;97970;-27
2023/09/27 00:07:11;;;;;;;4.93;2.38;;;;;;;16.08;87.48;102059.66;5053755;27;98717;-27
2023/09/27 00:09:36;;;;;;;3.78;2.03;;;;;;;16.08;87.17;102066.97;5053374;27;96683;-27
2023/09/27 00:12:05;;;;;;;3.78;2.35;;;;;;;16.08;86.82;102067.84;5053734;27;96882;-27
2023/09/27 00:14:31;;;;;;;3.50;2.05;;;;;;;16.10;86.98;102073.22;5052602;27;99097;-28
2023/09/27 00:16:58;;;;;;;4.22;2.03;;;;;;;16.08;87.83;102066.97;5034897;27;101340;-27
2023/09/27 00:19:24;;;;;;;2.63;1.58;;;;;;;16.05;87.34;102068.06;5035117;27;96683;-28
2023/09/27 00:21:49;;;;;;;4.50;1.90;;;;;;;16.04;87.38;102070.88;5053470;27;96541;-27
2023/09/27 00:24:14;;;;;;;4.55;2.10;;;;;;;15.98;87.36;102058.50;5053044;27;97856;-27
2023/09/27 00:26:40;;;;;;;6.65;2.28;;;;;;;15.99;87.61;102071.19;5053283;27;98647;-27
2023/09/27 00:29:05;;;;;;;5.75;2.20;;;;;;;16.00;87.83;102070.22;5053309;27;96557;-28
2023/09/27 00:31:31;;;;;;;4.63;2.53;;;;;;;15.99;87.86;102065.72;5035400;27;96741;-27
2023/09/27 00:33:56;;;;;;;3.22;2.03;;;;;;;15.97;87.78;102055.84;5053036;27;97502;-27
2023/09/27 00:36:21;;;;;;;3.58;2.20;;;;;;;15.95;88.01;102064.19;5052656;27;99184;-27
2023/09/27 00:38:47;;;;;;;4.97;2.15;;;;;;;15.93;87.81;102072.47;5052371;27;96717;-27
2023/09/27 00:41:12;;;;;;;2.88;2.17;;;;;;;15.90;88.20;102072.69;5053308;27;96787;-27
2023/09/27 00:43:37;;;;;;;5.60;2.10;;;;;;;15.87;88.31;102058.31;5052808;27;98092;-28
2023/09/27 00:46:05;;;;;;;2.80;2.00;;;;;;;15.87;88.01;102055.59;5052669;27;97823;-27
2023/09/27 00:48:32;;;;;;;5.93;2.80;;;;;;;15.83;87.99;102045.84;5034615;27;96555;-27
2023/09/27 00:51:00;;;;;;;4.82;2.30;;;;;;;15.86;88.56;102048.38;5035048;27;96877;-27
2023/09/27 00:53:29;;;;;;;3.58;1.85;;;;;;;15.81;88.45;102037.75;5052562;27;97460;-28
2023/09/27 00:55:55;;;;;;;4.20;2.15;;;;;;;15.83;88.33;102046.72;5052924;27;97846;-27
2023/09/27 00:58:21;;;;;;;5.15;2.85;;;;;;;15.79;88.39;102056.09;5052800;27;96543;-27
2023/09/27 01:00:49;;;;;;;4.40;2.38;;;;;;;15.79;88.30;102047.03;5034264;27;98038;-27
2023/09/27 01:03:14;;;;;;;4.15;2.25;;;;;;;15.81;88.01;102050.53;5033463;27;101013;-28
2023/09/27 01:05:41;;;;;;;3.70;2.08;;;;;;;15.77;88.29;102051.69;5052545;27;97385;-27
2023/09/27 01:08:07;;;;;;;3.70;1.88;;;;;;;15.78;88.60;102045.25;5034328;27;96688;-27
2023/09/27 01:10:35;;;;;;;2.88;1.88;;;;;;;15.78;88.58;102061.63;5034243;27;97020;-28
2023/09/27 01:13:01;;;;;;;5.38;2.50;;;;;;;15.71;88.83;102048.38;5034108;27;100927;-27
2023/09/27 01:15:26;;;;;;;3.90;2.47;;;;;;;15.74;88.45;102062.84;5052481;27;98134;-27
2023/09/27 01:17:56;;;;;;;7.10;2.38;;;;;;;15.75;88.65;102068.19;5052580;27;96604;-27
2023/09/27 01:20:22;;;;;;;4.15;2.10;;;;;;;15.69;88.47;102063.97;5034422;27;97184;-27
2023/09/27 01:23:01;;;;;;;4.05;2.30;;;;;;;15.71;88.71;102070.25;5033799;27;100932;-27
2023/09/27 01:25:29;;;;;;;6.43;2.50;;;;;;;15.64;88.91;102060.66;5033889;27;100791;-27
2023/09/27 01:27:56;;;;;;;4.10;2.10;;;;;;;15.56;89.16;102037.53;5033508;27;97277;-27
2023/09/27 01:30:21;;;;;;;5.00;1.95;;;;;;;15.58;89.57;102058.28;5033903;27;97192;-27
2023/09/27 01:32:47;;;;;;;3.50;2.10;;;;;;;15.61;89.15;102055.38;5052235;27;97491;-27
2023/09/27 01:35:12;;;;;;;5.78;1.90;;;;;;;15.50;89.01;102042.41;5033772;27;101374;-27
2023/09/27 01:37:37;;;;;;;3.42;2.03;;;;;;;15.51;89.17;102051.47;5052395;27;96720;-27
2023/09/27 01:40:07;;;;;;;3.00;1.90;;;;;;;15.54;89.49;102067.69;5052356;27;96789;-28
2023/09/27 01:42:33;;;;;;;3.13;2.17;;;;;;;15.52;89.67;102075.09;5030138;27;101827;-27
2023/09/27 01:44:58;;;;;;;3.63;2.05;;;;;;;15.48;89.32;102070.78;5052639;27;97314;-27
2023/09/27 01:47:24;;;;;;;4.57;2.08;;;;;;;15.45;89.50;102049.13;5051818;27;96845;-27
2023/09/27 01:49:49;;;;;;;6.22;2.45;;;;;;;15.48;89.35;102068.91;5033673;27;97052;-27
2023/09/27 01:52:14;;;;;;;6.93;2.80;;;;;;;15.43;89.48;102059.28;5051535;27;97402;-27
2023/09/27 01:54:40;;;;;;;3.90;2.10;;;;;;;15.42;89.64;102066.59;5051772;27;98674;-27
2023/09/27 01:57:05;;;;;;;4.38;2.05;;;;;;;15.46;89.09;102072.72;5051897;27;96637;-27
2023/09/27 01:59:30;;;;;;;3.90;2.15;;;;;;;15.45;89.20;102073.72;5051786;27;96810;-27
2023/09/27 02:01:56;;;;;;;4.22;2.20;;;;;;;15.44;89.10;102069.22;5051804;27;97369;-27
2023/09/27 02:04:21;;;;;;;5.35;2.40;;;;;;;15.43;89.23;102078.38;5051413;27;99829;-27
2023/09/27 02:06:46;;;;;;;6.68;2.55;;;;;;;15.43;89.51;102078.38;5052145;27;96438;-29
2023/09/27 02:09:12;;;;;;;3.47;2.35;;;;;;;15.37;89.70;102073.28;5052361;27;96674;-27
2023/09/27 02:11:37;;;;;;;5.95;2.58;;;;;;;15.38;89.10;102064.16;5051836;27;97861;-28
2023/09/27 02:14:04;;;;;;;4.90;2.35;;;;;;;15.39;89.33;102065.88;5054532;27;97738;-27
2023/09/27 02:16:31;;;;;;;4.55;2.33;;;;;;;15.33;89.04;102047.19;5036499;27;96965;-29
2023/09/27 02:18:57;;;;;;;5.80;2.38;;;;;;;15.40;89.24;102070.41;5036821;27;96929;-27
2023/09/27 02:21:22;;;;;;;4.40;2.67;;;;;;;15.41;89.29;102072.13;5055153;27;96816;-27
2023/09/27 02:23:47;;;;;;;5.32;2.80;;;;;;;15.37;89.77;102062.38;5055117;27;97772;-27
2023/09/27 02:26:13;;;;;;;5.30;3.00;;;;;;;15.36;90.25;102060.63;5036865;27;96569;-27
2023/09/27 02:28:38;;;;;;;3.30;2.28;;;;;;;15.39;89.85;102069.50;5055104;27;96862;-27
2023/09/27 02:31:08;;;;;;;3.25;2.38;;;;;;;15.34;89.88;102062.56;5054761;27;102825;-27
2023/09/27 02:33:34;;;;;;;4.75;2.92;;;;;;;15.39;89.90;102063.16;5036943;27;100784;-27
2023/09/27 02:35:59;;;;;;;4.88;2.85;;;;;;;15.36;90.03;102052.44;5054818;27;96665;-27
2023/09/27 02:38:25;;;;;;;5.65;2.83;;;;;;;15.32;90.06;102051.75;5054825;27;96828;-27
2023/09/27 02:40:51;;;;;;;5.43;2.53;;;;;;;15.33;90.24;102063.56;5054486;27;97387;-27
2023/09/27 02:43:16;;;;;;;5.65;3.10;;;;;;;15.37;90.54;102073.28;5054642;27;98815;-27
2023/09/27 02:45:42;;;;;;;5.10;2.72;;;;;;;15.35;90.55;102076.16;5054034;27;98051;-27
2023/09/27 02:48:07;;;;;;;4.30;2.63;;;;;;;15.32;90.53;102069.97;5054811;27;96801;-27
2023/09/27 02:50:33;;;;;;;4.70;2.83;;;;;;;15.31;90.30;102068.22;5054420;27;105664;-27
2023/09/27 02:52:58;;;;;;;4.95;2.65;;;;;;;15.28;90.74;102064.72;5054491;27;99076;-28
2023/09/27 02:55:25;;;;;;;5.18;2.63;;;;;;;15.24;90.55;102063.13;5054829;27;96499;-27
2023/09/27 02:57:51;;;;;;;4.55;2.53;;;;;;;15.22;91.04;102062.34;5054907;27;96846;-27
2023/09/27 03:00:18;;;;;;;5.80;2.75;;;;;;;15.22;90.90;102064.22;5054587;27;97284;-28
2023/09/27 03:02:43;;;;;;;5.68;3.15;;;;;;;15.20;90.85;102077.06;5035966;27;100820;-27
2023/09/27 03:05:09;;;;;;;4.93;2.78;;;;;;;15.21;90.52;102079.72;5054125;27;96895;-27
2023/09/27 03:07:35;;;;;;;5.15;2.92;;;;;;;15.20;90.91;102075.22;5036120;27;96740;-28
2023/09/27 03:10:07;;;;;;;5.50;2.90;;;;;;;15.16;90.67;102087.31;5054225;27;99419;-27
2023/09/27 03:12:33;;;;;;;5.78;2.83;;;;;;;15.21;90.69;102090.63;5054168;27;99816;-27
2023/09/27 03:14:58;;;;;;;5.00;2.70;;;;;;;15.16;90.70;102083.69;5054511;27;96762;-27
2023/09/27 03:17:23;;;;;;;3.90;2.42;;;;;;;15.18;90.94;102089.94;5054261;27;96802;-27
2023/09/27 03:19:49;;;;;;;5.35;2.70;;;;;;;15.08;91.07;102081.44;5054185;27;97381;-27
2023/09/27 03:22:14;;;;;;;5.18;2.75;;;;;;;15.12;91.36;102093.06;5054242;27;99164;-27
2023/09/27 03:24:40;;;;;;;6.03;2.40;;;;;;;15.14;91.22;102102.91;5052720;27;96676;-27
2023/09/27 03:27:08;;;;;;;6.20;2.55;;;;;;;15.08;91.42;102086.88;5054517;27;96764;-27
2023/09/27 03:29:33;;;;;;;5.15;2.83;;;;;;;15.12;91.26;102090.31;5035013;27;101240;-28
2023/09/27 03:31:59;;;;;;;5.22;3.08;;;;;;;15.10;91.10;102092.25;5053840;27;99351;-27
2023/09/27 03:34:25;;;;;;;6.25;3.22;;;;;;;15.05;91.58;102087.06;5054015;27;96466;-27
2023/09/27 03:36:55;;;;;;;6.15;2.90;;;;;;;15.04;91.40;102088.03;5035601;27;96817;-27
2023/09/27 03:39:22;;;;;;;4.13;2.70;;;;;;;15.06;91.63;102083.38;5053910;27;99327;-27
2023/09/27 03:41:47;;;;;;;8.73;3.05;;;;;;;15.04;91.40;102086.22;5035845;27;99514;-27
2023/09/27 03:44:13;;;;;;;5.88;2.55;;;;;;;15.06;91.39;102100.66;5035449;27;96768;-27
2023/09/27 03:46:38;;;;;;;5.22;2.72;;;;;;;15.06;91.62;102108.84;5035638;27;96878;-28
2023/09/27 03:49:04;;;;;;;4.20;2.22;;;;;;;15.06;91.37;102110.66;5053754;27;97365;-28
2023/09/27 03:51:29;;;;;;;4.80;2.67;;;;;;;15.04;91.15;102090.75;5053477;27;98785;-27
2023/09/27 03:53:54;;;;;;;5.60;2.55;;;;;;;15.06;90.84;102094.28;5053204;27;96572;-27
2023/09/27 03:56:20;;;;;;;6.55;3.08;;;;;;;15.06;91.68;102084.28;5053933;27;96951;-27
2023/09/27 03:58:45;;;;;;;7.15;2.75;;;;;;;15.03;91.21;102081.69;5053291;27;99263;-29
2023/09/27 04:01:12;;;;;;;6.80;2.88;;;;;;;15.01;92.02;102078.19;5053629;27;97414;-27
2023/09/27 04:03:38;;;;;;;6.40;3.08;;;;;;;15.04;91.97;102079.84;5034928;27;96555;-27
2023/09/27 04:06:03;;;;;;;5.97;3.13;;;;;;;15.02;91.93;102073.63;5035201;27;96893;-27
2023/09/27 04:08:28;;;;;;;5.75;3.38;;;;;;;15.03;92.24;102076.25;5053334;27;99453;-27
2023/09/27 04:10:54;;;;;;;4.25;2.78;;;;;;;15.02;92.04;102079.97;5053650;27;98815;-27
2023/09/27 04:13:19;;;;;;;6.28;2.92;;;;;;;15.02;91.96;102090.00;5052977;27;96660;-27
2023/09/27 04:15:49;;;;;;;4.15;2.13;;;;;;;15.00;91.70;102081.91;5053295;27;96825;-28
2023/09/27 04:18:14;;;;;;;5.50;2.65;;;;;;;14.97;92.42;102073.00;5052769;27;99306;-28
2023/09/27 04:20:40;;;;;;;5.15;3.00;;;;;;;14.99;91.83;102074.69;5053449;27;97794;-27
2023/09/27 04:23:05;;;;;;;4.00;2.38;;;;;;;14.97;91.92;102081.19;5053163;27;96545;-27
2023/09/27 04:25:30;;;;;;;9.25;3.05;;;;;;;14.95;92.77;102077.69;5053558;27;96807;-27
2023/09/27 04:27:56;;;;;;;4.72;2.90;;;;;;;14.93;92.29;102063.28;5053124;27;97455;-27
2023/09/27 04:30:22;;;;;;;4.35;2.50;;;;;;;14.92;92.66;102066.94;5053203;27;97779;-27
2023/09/27 04:32:52;;;;;;;4.60;3.00;;;;;;;14.92;92.54;102066.94;5053178;27;96533;-27
2023/09/27 04:35:18;;;;;;;5.47;3.08;;;;;;;14.92;92.61;102061.50;5034638;27;96748;-27
2023/09/27 04:37:44;;;;;;;5.82;3.35;;;;;;;14.88;92.52;102052.63;5052815;27;97739;-27
2023/09/27 04:40:14;;;;;;;6.60;3.38;;;;;;;14.90;92.91;102055.25;5053108;27;97271;-27
2023/09/27 04:42:44;;;;;;;9.65;4.40;;;;;;;14.91;92.25;102060.63;5033982;27;97062;-27
2023/09/27 04:45:11;;;;;;;11.27;4.38;;;;;;;14.97;92.43;102070.28;5034284;27;97364;-27
2023/09/27 04:47:37;;;;;;;7.40;3.85;;;;;;;14.94;92.74;102067.75;5052825;27;99828;-27
2023/09/27 04:50:03;;;;;;;9.43;4.25;;;;;;;14.94;92.12;102063.16;5052719;27;98702;-28
2023/09/27 04:52:29;;;;;;;9.38;4.05;;;;;;;14.98;92.67;102063.88;5052721;27;96454;-27
2023/09/27 04:54:57;;;;;;;7.15;3.92;;;;;;;15.01;92.59;102061.81;5034302;27;97009;-27
2023/09/27 04:57:24;;;;;;;6.38;4.07;;;;;;;15.05;92.18;102062.53;5034157;27;100849;-27
2023/09/27 04:59:52;;;;;;;9.13;4.22;;;;;;;15.02;92.15;102046.34;5034805;27;100851;-27
2023/09/27 05:02:18;;;;;;;7.25;3.53;;;;;;;15.03;92.20;102048.09;5052548;27;96543;-27
2023/09/27 05:04:43;;;;;;;7.93;3.42;;;;;;;15.05;92.40;102054.34;5052566;27;96809;-27
2023/09/27 05:07:09;;;;;;;7.90;3.85;;;;;;;15.07;92.58;102055.13;5052095;27;97530;-27
2023/09/27 05:09:34;;;;;;;5.82;2.97;;;;;;;15.04;92.68;102045.28;5033776;27;101016;-28
2023/09/27 05:11:59;;;;;;;8.02;3.45;;;;;;;14.99;92.76;102032.88;5052542;27;96502;-26
2023/09/27 05:14:25;;;;;;;6.45;3.60;;;;;;;15.07;92.52;102050.53;5052705;27;96939;-28
2023/09/27 05:16:50;;;;;;;7.55;3.47;;;;;;;15.07;92.70;102044.22;5052565;27;97218;-27
2023/09/27 05:19:15;;;;;;;6.35;3.70;;;;;;;15.10;92.37;102059.50;5052253;27;99286;-27
2023/09/27 05:21:41;;;;;;;6.20;3.38;;;;;;;15.11;92.52;102061.25;5052311;27;96590;-27
2023/09/27 05:24:07;;;;;;;9.70;4.18;;;;;;;15.11;92.53;102063.97;5052612;27;96819;-26
2023/09/27 05:26:32;;;;;;;12.35;3.50;;;;;;;15.09;92.54;102055.91;5052276;27;97608;-27
2023/09/27 05:28:58;;;;;;;7.47;3.17;;;;;;;15.07;92.30;102052.41;5052236;27;97312;-27
2023/09/27 05:31:23;;;;;;;5.90;3.55;;;;;;;15.09;92.55;102042.25;5052087;27;97028;-28
2023/09/27 05:33:49;;;;;;;6.57;3.58;;;;;;;15.15;92.27;102046.47;5052128;27;96860;-27
2023/09/27 05:36:14;;;;;;;8.02;3.90;;;;;;;15.16;92.35;102043.63;5051864;27;99411;-28
2023/09/27 05:38:40;;;;;;;9.73;4.22;;;;;;;15.18;92.81;102036.25;5052201;27;97412;-28
2023/09/27 05:41:05;;;;;;;5.93;3.55;;;;;;;15.17;92.83;102033.59;5052224;27;96540;-27
2023/09/27 05:43:30;;;;;;;7.85;3.75;;;;;;;15.21;92.92;102046.09;5052027;27;96771;-28
2023/09/27 05:45:57;;;;;;;11.43;4.00;;;;;;;15.20;92.25;102052.50;5051811;27;97393;-27
2023/09/27 05:48:23;;;;;;;6.25;3.65;;;;;;;15.22;92.54;102058.75;5054118;27;97390;-27
2023/09/27 05:50:48;;;;;;;6.28;3.55;;;;;;;15.18;92.26;102047.16;5056012;27;96622;-27
2023/09/27 05:53:16;;;;;;;7.95;3.38;;;;;;;15.26;92.53;102060.31;5055505;27;96643;-28
2023/09/27 05:55:42;;;;;;;5.07;3.20;;;;;;;15.25;92.57;102054.00;5055144;27;97988;-27
2023/09/27 05:58:07;;;;;;;6.85;4.30;;;;;;;15.24;93.25;102043.16;5036769;27;100718;-27
2023/09/27 06:00:38;;;;;;;8.68;4.50;;;;;;;15.23;92.39;102042.28;5055650;27;96706;-28
2023/09/27 06:03:09;;;;;;;6.72;3.88;;;;;;;15.31;93.58;102051.84;5036881;27;96891;-27
2023/09/27 06:05:34;;;;;;;7.30;3.72;;;;;;;15.32;94.07;102057.19;5036740;27;100917;-27
2023/09/27 06:08:00;;;;;;;12.02;4.07;;;;;;;15.34;94.39;102055.25;5055318;27;97650;-28
2023/09/27 06:10:25;;;;;;;9.82;4.28;;;;;;;15.38;94.61;102055.97;5055818;27;96554;-28
2023/09/27 06:12:51;;;;;;;4.80;3.42;;;;;;;15.35;93.83;102054.31;5055616;27;96850;-27
2023/09/27 06:15:17;;;;;;;6.20;3.30;;;;;;;15.37;93.36;102049.59;5055077;27;99366;-27
2023/09/27 06:17:43;;;;;;;6.53;3.25;;;;;;;15.41;93.48;102056.63;5036777;27;100848;-27
2023/09/27 06:20:19;;;;;;;7.88;4.13;;;;;;;15.44;93.42;102050.09;5036272;27;96934;-27
2023/09/27 06:22:48;;;;;;;6.85;3.70;;;;;;;15.45;93.80;102060.06;5036861;27;96657;-27
2023/09/27 06:25:14;;;;;;;7.57;4.15;;;;;;;15.48;93.47;102043.47;5054194;27;99513;-28
2023/09/27 06:27:39;;;;;;;8.25;4.45;;;;;;;15.46;93.71;102018.97;5034380;27;101038;-28
2023/09/27 06:30:07;;;;;;;6.00;4.07;;;;;;;15.51;94.18;102026.88;5052927;27;96553;-29
2023/09/27 06:32:34;;;;;;;7.50;4.15;;;;;;;15.57;93.95;102011.97;5034741;27;96805;-28
2023/09/27 06:34:59;;;;;;;6.80;3.88;;;;;;;15.53;94.78;101992.16;5034693;27;101177;-31
2023/09/27 06:37:25;;;;;;;8.98;4.38;;;;;;;15.56;94.85;102005.63;5054216;27;97836;-26
2023/09/27 06:39:50;;;;;;;7.75;4.00;;;;;;;15.63;94.40;102028.81;5053788;27;96745;-27
2023/09/27 06:42:15;;;;;;;8.30;4.22;;;;;;;15.65;94.08;102013.22;5055001;27;96771;-28
2023/09/27 06:44:41;;;;;;;8.27;4.65;;;;;;;15.62;93.56;102004.38;5034508;27;99419;-28
2023/09/27 06:47:06;;;;;;;11.60;5.03;;;;;;;15.73;94.09;102033.75;5051757;27;99142;-30
2023/09/27 06:49:32;;;;;;;9.57;4.72;;;;;;;15.72;93.64;102043.78;5052251;27;96843;-28
2023/09/27 06:51:57;;;;;;;9.30;4.72;;;;;;;15.75;93.58;102046.31;5052651;27;96781;-27
2023/09/27 06:54:22;;;;;;;8.77;4.78;;;;;;;15.78;94.69;102058.91;5052229;27;97960;-29
2023/09/27 06:56:48;;;;;;;8.55;4.43;;;;;;;15.84;94.34;102080.38;5052162;27;99101;-27
2023/09/27 06:59:13;;;;;;;8.23;4.65;;;;;;;15.87;93.15;102089.28;5052488;27;96934;-27
2023/09/27 07:01:41;;;;;;;9.43;3.95;;;;;;;15.86;93.08;102089.38;5055169;27;96749;-27
2023/09/27 07:04:08;;;;;;;7.90;4.45;;;;;;;15.96;93.33;102092.38;5035433;27;101266;-26
2023/09/27 07:06:34;;;;;;;7.30;3.97;;;;;;;16.02;93.01;102090.13;5036130;27;101270;-28
2023/09/27 07:09:00;;;;;;;7.43;4.50;;;;;;;16.07;94.01;102096.19;5053895;27;96516;-27
2023/09/27 07:11:25;;;;;;;7.00;3.85;;;;;;;16.10;92.99;102085.03;5036042;27;96982;-27
2023/09/27 07:13:52;;;;;;;7.65;4.85;;;;;;;16.15;92.65;102087.47;5054474;27;97950;-28
2023/09/27 07:16:20;;;;;;;8.77;4.80;;;;;;;16.19;92.60;102088.16;5054029;27;99552;-27
2023/09/27 07:18:45;;;;;;;10.18;4.13;;;;;;;16.22;92.13;102101.63;5035891;27;96654;-27
2023/09/27 07:21:11;;;;;;;8.82;5.07;;;;;;;16.23;92.31;102092.44;5054523;27;96823;-27
2023/09/27 07:23:37;;;;;;;8.85;4.97;;;;;;;16.29;92.47;102090.19;5053960;27;99196;-27
2023/09/27 07:26:04;;;;;;;10.02;5.45;;;;;;;16.32;92.81;102094.56;5036087;27;101109;-27
2023/09/27 07:28:31;;;;;;;14.93;5.40;;;;;;;16.42;92.61;102094.84;5054103;27;96672;-27
2023/09/27 07:30:57;;;;;;;11.43;6.00;;;;;;;16.50;92.47;102098.81;5035803;27;96902;-27
2023/09/27 07:33:24;;;;;;;11.93;5.50;;;;;;;16.53;92.89;102084.94;5034865;27;100960;-27
2023/09/27 07:35:52;;;;;;;9.10;4.88;;;;;;;16.68;92.67;102093.09;5053656;27;97795;-27
2023/09/27 07:38:17;;;;;;;9.57;5.78;;;;;;;16.80;92.50;102100.50;5035710;27;96737;-28
2023/09/27 07:40:47;;;;;;;9.18;5.47;;;;;;;17.00;91.76;102099.16;5054462;27;96719;-27
2023/09/27 07:43:12;;;;;;;9.95;5.90;;;;;;;17.14;91.77;102087.25;5053720;27;97911;-29
2023/09/27 07:45:41;;;;;;;11.68;5.95;;;;;;;17.27;91.15;102100.97;5053283;27;97276;-26
2023/09/27 07:48:07;;;;;;;14.68;6.55;;;;;;;17.31;91.11;102097.91;5054055;27;96588;-27
2023/09/27 07:50:37;;;;;;;10.63;5.93;;;;;;;17.33;91.40;102095.94;5054281;27;96793;-27
2023/09/27 07:53:03;;;;;;;11.20;6.03;;;;;;;17.39;91.74;102095.47;5035302;27;99330;-27
2023/09/27 07:55:33;;;;;;;12.10;6.03;;;;;;;17.43;91.53;102098.91;5035314;27;101512;-27
2023/09/27 07:57:59;;;;;;;12.93;6.93;;;;;;;17.51;91.84;102096.47;5053223;27;96482;-27
2023/09/27 08:00:30;;;;;;;11.80;6.65;;;;;;;17.67;90.90;102093.53;5053393;27;96748;-28
2023/09/27 08:02:58;;;;;;;13.75;6.35;;;;;;;17.76;91.02;102090.13;5053977;27;97146;-27
2023/09/27 08:05:24;;;;;;;13.48;6.00;;;;;;;17.75;90.38;102085.63;5053235;27;99205;-27
2023/09/27 08:07:53;;;;;;;13.18;5.95;;;;;;;17.76;89.70;102090.13;5035135;27;96648;-27
2023/09/27 08:10:19;;;;;;;11.23;5.45;;;;;;;17.78;89.98;102085.44;5034456;27;96807;-27
2023/09/27 08:12:45;;;;;;;10.77;5.75;;;;;;;17.74;90.04;102088.50;5053094;27;99279;-28
2023/09/27 08:15:12;;;;;;;12.00;5.55;;;;;;;17.68;90.30;102102.63;5035301;27;100762;-27
2023/09/27 08:17:38;;;;;;;12.93;5.22;;;;;;;17.63;90.40;102116.66;5035015;27;96556;-27
2023/09/27 08:20:05;;;;;;;8.95;5.57;;;;;;;17.58;91.02;102107.88;5053343;27;96774;-27
2023/09/27 08:22:34;;;;;;;8.73;5.20;;;;;;;17.56;91.11;102107.97;5034293;27;101074;-27
2023/09/27 08:25:00;;;;;;;10.02;4.93;;;;;;;17.51;90.83;102080.03;5034916;27;101100;-27
2023/09/27 08:27:26;;;;;;;9.90;5.55;;;;;;;17.53;91.59;102097.25;5034702;27;96740;-26
2023/09/27 08:29:52;;;;;;;9.35;5.45;;;;;;;17.56;91.81;102088.81;5035058;27;96878;-27
2023/09/27 08:32:17;;;;;;;8.52;5.28;;;;;;;17.55;91.58;102083.47;5053166;27;97500;-27
2023/09/27 08:34:43;;;;;;;8.68;4.95;;;;;;;17.58;91.69;102066.78;5053233;27;97278;-28
2023/09/27 08:37:11;;;;;;;10.40;5.05;;;;;;;17.47;92.25;102048.41;5051529;27;96847;-29
2023/09/27 08:39:37;;;;;;;7.80;4.57;;;;;;;17.51;92.08;102060.00;5053102;27;96881;-27
2023/09/27 08:42:02;;;;;;;9.18;5.43;;;;;;;17.54;92.95;102081.69;5052652;27;97297;-27
2023/09/27 08:44:30;;;;;;;10.15;5.28;;;;;;;17.53;92.77;102089.03;5052997;27;97263;-26
2023/09/27 08:46:56;;;;;;;11.93;4.97;;;;;;;17.53;92.29;102069.84;5052082;27;96779;-27
2023/09/27 08:49:24;;;;;;;10.18;5.63;;;;;;;17.47;92.48;102063.94;5034538;27;97094;-27
2023/09/27 08:51:51;;;;;;;10.55;5.57;;;;;;;17.52;93.22;102072.69;5034413;27;100824;-27
2023/09/27 08:54:18;;;;;;;11.65;5.22;;;;;;;17.52;93.13;102078.16;5034380;27;100989;-27
2023/09/27 08:56:47;;;;;;;12.73;6.22;;;;;;;17.53;92.80;102093.66;5034278;27;96750;-26
2023/09/27 08:59:12;;;;;;;11.70;6.20;;;;;;;17.55;92.60;102108.13;5034543;27;96841;-27
2023/09/27 09:01:41;;;;;;;12.13;5.72;;;;;;;17.54;92.93;102082.59;5052453;27;98905;-28
2023/09/27 09:04:08;;;;;;;9.50;5.20;;;;;;;17.64;93.89;102077.31;5034242;27;100972;-27
2023/09/27 09:06:35;;;;;;;13.02;5.78;;;;;;;17.64;92.80;102074.59;5052616;27;96604;-27
2023/09/27 09:09:10;;;;;;;11.05;5.65;;;;;;;17.69;93.43;102075.13;5034209;27;96781;-26
2023/09/27 09:11:38;;;;;;;8.48;4.93;;;;;;;17.69;92.98;102068.78;5052155;27;98051;-29
2023/09/27 09:14:06;;;;;;;12.63;6.20;;;;;;;17.74;93.11;102083.00;5033957;27;100702;-27
2023/09/27 09:16:47;;;;;;;12.32;5.70;;;;;;;17.81;93.08;102098.94;5052477;27;96662;-27
2023/09/27 09:19:24;;;;;;;9.63;5.10;;;;;;;17.88;92.53;102082.06;5052525;27;96693;-27
2023/09/27 09:21:56;;;;;;;9.18;5.70;;;;;;;17.93;92.70;102085.34;5052323;27;99573;-27
2023/09/27 09:24:22;;;;;;;8.82;5.22;;;;;;;17.98;92.67;102091.34;5034025;27;99121;-28
2023/09/27 09:27:03;;;;;;;15.30;5.05;;;;;;;18.01;92.02;102081.03;5052198;27;96607;-26
2023/09/27 09:29:46;;;;;;;13.15;5.10;;;;;;;18.07;91.82;102071.50;5034510;27;96807;-27
2023/09/27 09:32:17;;;;;;;10.63;4.65;;;;;;;18.10;92.00;102064.91;5052018;27;99317;-27
2023/09/27 09:34:44;;;;;;;9.57;5.90;;;;;;;18.09;91.52;102068.59;5033819;27;99318;-27
2023/09/27 09:37:19;;;;;;;11.02;5.43;;;;;;;18.18;91.98;102082.50;5033313;27;97579;-27
2023/09/27 09:39:47;;;;;;;9.88;5.05;;;;;;;18.19;91.84;102081.53;5034001;27;96919;-26
2023/09/27 09:42:14;;;;;;;11.02;5.47;;;;;;;18.21;91.63;102068.59;5033851;27;100802;-27
2023/09/27 09:44:40;;;;;;;16.05;5.40;;;;;;;18.22;91.68;102064.84;5033533;27;101151;-27
2023/09/27 09:47:10;;;;;;;11.57;5.15;;;;;;;18.24;92.02;102057.38;5051922;27;96859;-27
2023/09/27 09:49:42;;;;;;;10.40;4.75;;;;;;;18.29;92.10;102040.59;5033784;27;96857;-27
2023/09/27 09:52:11;;;;;;;11.02;4.25;;;;;;;18.42;92.20;102066.13;5033682;27;100985;-27
2023/09/27 09:54:48;;;;;;;7.43;3.80;;;;;;;18.48;91.67;102044.69;5033886;27;100810;-27
2023/09/27 09:57:19;;;;;;;7.32;4.70;;;;;;;18.66;91.07;102046.91;5052054;27;96635;-27
2023/09/27 10:00:03;;;;;;;8.90;4.03;;;;;;;18.80;89.48;102043.09;5033999;27;96694;-27
2023/09/27 10:02:35;;;;;;;6.10;3.30;;;;;;;18.93;88.90;102047.66;5033116;27;100928;-27
2023/09/27 10:05:06;;;;;;;9.15;3.53;;;;;;;18.92;88.26;102046.78;5033261;27;100785;-27
2023/09/27 10:07:32;;;;;;;9.27;3.63;;;;;;;18.92;88.64;102032.16;5033786;27;96755;-26
2023/09/27 10:09:58;;;;;;;10.65;4.70;;;;;;;18.94;88.82;102019.19;5051894;27;96513;-27
2023/09/27 10:12:26;;;;;;;11.48;3.83;;;;;;;18.85;88.83;102001.56;5033343;27;100735;-27
2023/09/27 10:14:52;;;;;;;9.77;3.85;;;;;;;18.89;89.45;102003.09;5033427;27;101075;-27
2023/09/27 10:17:22;;;;;;;9.48;4.18;;;;;;;18.86;89.25;102004.22;5051957;27;96787;-27
2023/09/27 10:20:12;;;;;;;12.75;4.25;;;;;;;18.87;89.35;102016.94;5033785;27;96850;-27
2023/09/27 10:22:38;;;;;;;12.98;3.78;;;;;;;18.83;88.87;102009.03;5033302;27;101296;-28
2023/09/27 10:25:03;;;;;;;9.23;3.92;;;;;;;18.77;88.78;102004.91;5033306;27;100858;-26
2023/09/27 10:28:01;;;;;;;8.88;4.18;;;;;;;18.86;88.49;102022.56;5032849;27;97118;-27
2023/09/27 10:30:48;;;;;;;5.50;3.08;;;;;;;18.98;88.72;102010.59;5051603;27;96938;-26
2023/09/27 10:33:20;;;;;;;5.15;3.00;;;;;;;19.26;87.68;101986.44;5034379;27;97925;-27
2023/09/27 10:36:18;;;;;;;6.22;3.88;;;;;;;19.52;87.02;101981.56;5036537;27;100652;-27
2023/09/27 10:38:43;;;;;;;7.30;4.03;;;;;;;19.59;85.89;101985.56;4998296;27;96895;-27
2023/09/27 10:41:29;;;;;;;7.82;3.65;;;;;;;19.88;85.50;101990.59;5054836;27;96803;-26
2023/09/27 10:43:55;;;;;;;8.43;3.58;;;;;;;20.12;83.97;101952.78;5054703;27;97524;-27
2023/09/27 10:46:20;;;;;;;7.43;4.47;;;;;;;20.32;83.56;101947.47;5054957;27;97834;-27
2023/09/27 10:49:00;;;;;;;10.55;4.38;;;;;;;20.37;82.47;101957.06;5054984;27;96585;-27
2023/09/27 10:51:26;;;;;;;10.43;4.05;;;;;;;20.33;83.45;101941.84;5036494;27;96724;-27
2023/09/27 10:53:54;;;;;;;8.30;4.63;;;;;;;20.68;82.38;101942.56;5054297;27;98044;-27
2023/09/27 10:56:20;;;;;;;9.55;3.92;;;;;;;21.03;81.18;101944.13;5036158;27;100717;-27
2023/09/27 10:58:52;;;;;;;10.10;4.75;;;;;;;21.39;80.18;101938.09;5054645;27;96637;-27
2023/09/27 11:01:23;;;;;;;8.50;4.70;;;;;;;21.70;79.41;101938.06;5036455;27;96664;-28
2023/09/27 11:03:58;;;;;;;;;;;;;;;21.91;76.95;101931.59;5036054;27;101375;-27
2023/09/27 11:06:24;;;;;;;5.55;3.42;;;;;;;22.04;76.90;101929.41;5054395;27;99082;-26
2023/09/27 11:08:49;;;;;;;7.57;4.35;;;;;;;22.14;76.94;101932.19;5054656;27;96436;-28
2023/09/27 11:11:15;;;;;;;6.85;4.22;;;;;;;22.50;76.38;101922.38;5054732;27;96581;-27
2023/09/27 11:13:42;;;;;;;8.43;4.72;;;;;;;22.70;76.11;101917.69;5054480;27;98501;-27
2023/09/27 11:16:09;;;;;;;8.27;4.35;;;;;;;22.88;75.09;101915.91;5054361;27;97290;-27
2023/09/27 11:18:36;;;;;;;7.38;4.53;;;;;;;23.07;73.54;101915.03;5035582;27;96709;-27
2023/09/27 11:21:11;;;;;;;7.22;4.18;;;;;;;23.17;72.88;101920.53;5036007;27;96952;-27
2023/09/27 11:23:58;;;;;;;6.18;3.95;;;;;;;23.21;71.43;101902.59;5054163;27;98044;-27